sensor_id;sensor_type;location;lat;lon;timestamp;pressure;altitude;pressure_sealevel;temperature;humidity
73422;BME280;61637;47.760;-122.022;2023-02-01T00:00:01;102268.97799999999;;;3.6;unknown
73422;BME280;61637;47.760;-122.022;2023-02-01T00:02:01;102268.97799999999;;;3.6;unknown
73422;BME280;61637;47.760;-122.022;2023-02-01T00:04:01;102268.97799999999;;;3.6;unknown
73422;BME280;61637;47.760;-122.022;2023-02-01T00:06:01;102268.97799999999;;;3.6;unknown
73422;BME280;61637;47.760;-122.022;2023-02-01T00:08:01;102268.97799999999;;;3.5;unknown
73422;BME280;61637;47.760;-122.022;2023-02-01T00:10:01;102268.97799999999;;;3.4;unknown
73422;BME280;61637;47.760;-122.022;2023-02-01T00:12:01;102268.97799999999;;;3.4;unknown
73422;BME280;61637;47.760;-122.022;2023-02-01T00:14:01;102268.97799999999;;;3.4;unknown
73422;BME280;61637;47.760;-122.022;2023-02-01T00:16:04;102268.97799999999;;;3.3;unknown
73422;BME280;61637;47.760;-122.022;2023-02-01T00:18:01;102268.97799999999;;;3.3;unknown
73422;BME280;61637;47.760;-122.022;2023-02-01T00:20:01;102268.97799999999;;;3.3;unknown
73422;BME280;61637;47.760;-122.022;2023-02-01T00:22:01;102268.97799999999;;;3.3;unknown
73422;BME280;61637;47.760;-122.022;2023-02-01T00:24:01;102268.97799999999;;;3.3;unknown
73422;BME280;61637;47.760;-122.022;2023-02-01T00:26:01;102268.97799999999;;;3.2;unknown
73422;BME280;61637;47.760;-122.022;2023-02-01T00:28:01;102268.97799999999;;;3.2;unknown
73422;BME280;61637;47.760;-122.022;2023-02-01T00:30:01;102268.97799999999;;;3.2;unknown
73422;BME280;61637;47.760;-122.022;2023-02-01T00:32:01;102268.97799999999;;;3.2;unknown
73422;BME280;61637;47.760;-122.022;2023-02-01T00:34:01;102268.97799999999;;;3.1;unknown
73422;BME280;61637;47.760;-122.022;2023-02-01T00:36:01;102268.97799999999;;;3.1;unknown
73422;BME280;61637;47.760;-122.022;2023-02-01T00:38:01;102268.97799999999;;;3.0;unknown
73422;BME280;61637;47.760;-122.022;2023-02-01T00:40:01;102268.97799999999;;;2.9;unknown
73422;BME280;61637;47.760;-122.022;2023-02-01T00:42:01;102268.97799999999;;;2.9;unknown
73422;BME280;61637;47.760;-122.022;2023-02-01T00:44:01;102268.97799999999;;;2.8;unknown
73422;BME280;61637;47.760;-122.022;2023-02-01T00:46:01;102268.97799999999;;;2.8;unknown
73422;BME280;61637;47.760;-122.022;2023-02-01T00:48:01;102268.97799999999;;;2.7;unknown
73422;BME280;61637;47.760;-122.022;2023-02-01T00:50:01;102268.97799999999;;;2.7;unknown
73422;BME280;61637;47.760;-122.022;2023-02-01T00:52:01;102268.97799999999;;;2.7;unknown
73422;BME280;61637;47.760;-122.022;2023-02-01T00:54:01;102268.97799999999;;;2.6;unknown
73422;BME280;61637;47.760;-122.022;2023-02-01T00:56:01;102268.97799999999;;;2.6;unknown
73422;BME280;61637;47.760;-122.022;2023-02-01T00:58:01;102268.97799999999;;;2.5;unknown
73422;BME280;61637;47.760;-122.022;2023-02-01T01:00:01;102268.97799999999;;;2.4;unavailable
73422;BME280;61637;47.760;-122.022;2023-02-01T01:02:01;102268.97799999999;;;2.4;unknown
73422;BME280;61637;47.760;-122.022;2023-02-01T01:04:01;102268.97799999999;;;2.3;unknown
73422;BME280;61637;47.760;-122.022;2023-02-01T01:06:02;102268.97799999999;;;2.3;unknown
73422;BME280;61637;47.760;-122.022;2023-02-01T01:08:01;102268.97799999999;;;2.3;unknown
73422;BME280;61637;47.760;-122.022;2023-02-01T01:10:01;102268.97799999999;;;2.2;unknown
73422;BME280;61637;47.760;-122.022;2023-02-01T01:12:01;102268.97799999999;;;2.2;unknown
73422;BME280;61637;47.760;-122.022;2023-02-01T01:14:01;102268.97799999999;;;2.1;unknown
73422;BME280;61637;47.760;-122.022;2023-02-01T01:16:01;102268.97799999999;;;2.2;unknown
73422;BME280;61637;47.760;-122.022;2023-02-01T01:18:01;102268.97799999999;;;2.1;unknown
73422;BME280;61637;47.760;-122.022;2023-02-01T01:20:01;102268.97799999999;;;2.1;unknown
73422;BME280;61637;47.760;-122.022;2023-02-01T01:22:01;102268.97799999999;;;2.1;unknown
73422;BME280;61637;47.760;-122.022;2023-02-01T01:24:01;102268.97799999999;;;2.1;unknown
73422;BME280;61637;47.760;-122.022;2023-02-01T01:26:04;102268.97799999999;;;2.1;unknown
73422;BME280;61637;47.760;-122.022;2023-02-01T01:28:01;102268.97799999999;;;2.1;unknown
73422;BME280;61637;47.760;-122.022;2023-02-01T01:30:01;102268.97799999999;;;2.1;unknown
73422;BME280;61637;47.760;-122.022;2023-02-01T01:32:02;102268.97799999999;;;2.1;unknown
73422;BME280;61637;47.760;-122.022;2023-02-01T01:34:01;102268.97799999999;;;2.1;unknown
73422;BME280;61637;47.760;-122.022;2023-02-01T01:36:01;102268.97799999999;;;2.1;unknown
73422;BME280;61637;47.760;-122.022;2023-02-01T01:38:01;102268.97799999999;;;2.1;unknown
73422;BME280;61637;47.760;-122.022;2023-02-01T01:40:01;102268.97799999999;;;2.1;unknown
73422;BME280;61637;47.760;-122.022;2023-02-01T01:42:01;102268.97799999999;;;2.1;unknown
73422;BME280;61637;47.760;-122.022;2023-02-01T01:44:02;102268.97799999999;;;2.1;unknown
73422;BME280;61637;47.760;-122.022;2023-02-01T01:46:01;102268.97799999999;;;2.1;unknown
73422;BME280;61637;47.760;-122.022;2023-02-01T01:48:02;102268.97799999999;;;2.1;unknown
73422;BME280;61637;47.760;-122.022;2023-02-01T01:50:01;102268.97799999999;;;2.0;unknown
73422;BME280;61637;47.760;-122.022;2023-02-01T01:52:01;102268.97799999999;;;2.0;unknown
73422;BME280;61637;47.760;-122.022;2023-02-01T01:54:01;102268.97799999999;;;1.9;unknown
73422;BME280;61637;47.760;-122.022;2023-02-01T01:56:01;102268.97799999999;;;1.9;unknown
73422;BME280;61637;47.760;-122.022;2023-02-01T01:58:02;102268.97799999999;;;1.9;unknown
73422;BME280;61637;47.760;-122.022;2023-02-01T02:00:03;102268.97799999999;;;1.8;unknown
73422;BME280;61637;47.760;-122.022;2023-02-01T02:02:01;102268.97799999999;;;1.8;unknown
73422;BME280;61637;47.760;-122.022;2023-02-01T02:04:01;102268.97799999999;;;1.8;unknown
73422;BME280;61637;47.760;-122.022;2023-02-01T02:06:01;102268.97799999999;;;1.8;unknown
73422;BME280;61637;47.760;-122.022;2023-02-01T02:08:01;102268.97799999999;;;1.8;unknown
73422;BME280;61637;47.760;-122.022;2023-02-01T02:10:01;102268.97799999999;;;1.8;unknown
73422;BME280;61637;47.760;-122.022;2023-02-01T02:12:01;102268.97799999999;;;1.8;unknown
73422;BME280;61637;47.760;-122.022;2023-02-01T02:14:01;102268.97799999999;;;1.8;unknown
73422;BME280;61637;47.760;-122.022;2023-02-01T02:16:05;102268.97799999999;;;1.7;unknown
73422;BME280;61637;47.760;-122.022;2023-02-01T02:18:03;102268.97799999999;;;1.8;unknown
73422;BME280;61637;47.760;-122.022;2023-02-01T02:24:06;102268.97799999999;;;1.7;unknown
73422;BME280;61637;47.760;-122.022;2023-02-01T02:26:04;102268.97799999999;;;1.8;unknown
73422;BME280;61637;47.760;-122.022;2023-02-01T02:28:03;102268.97799999999;;;1.8;unknown
73422;BME280;61637;47.760;-122.022;2023-02-01T02:30:08;102268.97799999999;;;1.8;unknown
73422;BME280;61637;47.760;-122.022;2023-02-01T02:32:05;102268.97799999999;;;1.8;unknown
73422;BME280;61637;47.760;-122.022;2023-02-01T02:34:03;102268.97799999999;;;1.8;unknown
73422;BME280;61637;47.760;-122.022;2023-02-01T02:36:01;102268.97799999999;;;1.8;unknown
73422;BME280;61637;47.760;-122.022;2023-02-01T02:38:03;102268.97799999999;;;1.8;unknown
73422;BME280;61637;47.760;-122.022;2023-02-01T02:40:03;102268.97799999999;;;1.8;unknown
73422;BME280;61637;47.760;-122.022;2023-02-01T02:42:01;102268.97799999999;;;1.8;unknown
73422;BME280;61637;47.760;-122.022;2023-02-01T02:44:02;102268.97799999999;;;1.8;unknown
73422;BME280;61637;47.760;-122.022;2023-02-01T02:46:01;102268.97799999999;;;1.8;unknown
73422;BME280;61637;47.760;-122.022;2023-02-01T02:48:02;102268.97799999999;;;1.8;unknown
73422;BME280;61637;47.760;-122.022;2023-02-01T02:50:04;102268.97799999999;;;1.8;unknown
73422;BME280;61637;47.760;-122.022;2023-02-01T02:52:02;102268.97799999999;;;1.8;unknown
73422;BME280;61637;47.760;-122.022;2023-02-01T02:54:02;102268.97799999999;;;1.8;unknown
73422;BME280;61637;47.760;-122.022;2023-02-01T02:56:01;102268.97799999999;;;1.8;unknown
73422;BME280;61637;47.760;-122.022;2023-02-01T02:58:01;102268.97799999999;;;1.8;unknown
73422;BME280;61637;47.760;-122.022;2023-02-01T03:00:02;102268.97799999999;;;1.8;unknown
73422;BME280;61637;47.760;-122.022;2023-02-01T03:02:01;102268.97799999999;;;1.8;unknown
73422;BME280;61637;47.760;-122.022;2023-02-01T03:04:01;102268.97799999999;;;1.7;unknown
73422;BME280;61637;47.760;-122.022;2023-02-01T03:06:01;102268.97799999999;;;1.7;unknown
73422;BME280;61637;47.760;-122.022;2023-02-01T03:08:02;102268.97799999999;;;1.7;unknown
73422;BME280;61637;47.760;-122.022;2023-02-01T03:10:01;102268.97799999999;;;1.7;unknown
73422;BME280;61637;47.760;-122.022;2023-02-01T03:12:03;102268.97799999999;;;1.7;unknown
73422;BME280;61637;47.760;-122.022;2023-02-01T03:14:01;102268.97799999999;;;1.7;unknown
73422;BME280;61637;47.760;-122.022;2023-02-01T03:16:02;102268.97799999999;;;1.7;unknown
73422;BME280;61637;47.760;-122.022;2023-02-01T03:18:01;102268.97799999999;;;1.7;unknown
73422;BME280;61637;47.760;-122.022;2023-02-01T03:20:01;102268.97799999999;;;1.7;unknown
73422;BME280;61637;47.760;-122.022;2023-02-01T03:22:01;102268.97799999999;;;1.8;unknown
73422;BME280;61637;47.760;-122.022;2023-02-01T03:24:02;102268.97799999999;;;1.8;unknown
73422;BME280;61637;47.760;-122.022;2023-02-01T03:26:01;102268.97799999999;;;1.8;unknown
73422;BME280;61637;47.760;-122.022;2023-02-01T03:28:01;102268.97799999999;;;1.8;unknown
73422;BME280;61637;47.760;-122.022;2023-02-01T03:30:02;102268.97799999999;;;1.8;unknown
73422;BME280;61637;47.760;-122.022;2023-02-01T03:32:01;102268.97799999999;;;1.8;unknown
73422;BME280;61637;47.760;-122.022;2023-02-01T03:34:01;102268.97799999999;;;1.8;unknown
73422;BME280;61637;47.760;-122.022;2023-02-01T03:36:03;102268.97799999999;;;1.8;unknown
73422;BME280;61637;47.760;-122.022;2023-02-01T03:38:02;102268.97799999999;;;1.8;unknown
73422;BME280;61637;47.760;-122.022;2023-02-01T03:40:02;102268.97799999999;;;1.8;unknown
73422;BME280;61637;47.760;-122.022;2023-02-01T03:42:01;102268.97799999999;;;1.8;unknown
73422;BME280;61637;47.760;-122.022;2023-02-01T03:44:03;102268.97799999999;;;1.8;unknown
73422;BME280;61637;47.760;-122.022;2023-02-01T03:46:01;102268.97799999999;;;1.8;unknown
73422;BME280;61637;47.760;-122.022;2023-02-01T03:48:01;102268.97799999999;;;1.8;unknown
73422;BME280;61637;47.760;-122.022;2023-02-01T03:50:01;102268.97799999999;;;1.8;unknown
73422;BME280;61637;47.760;-122.022;2023-02-01T03:52:01;102268.97799999999;;;1.8;unknown
73422;BME280;61637;47.760;-122.022;2023-02-01T03:54:01;102268.97799999999;;;1.8;unknown
73422;BME280;61637;47.760;-122.022;2023-02-01T03:56:01;102268.97799999999;;;1.8;unknown
73422;BME280;61637;47.760;-122.022;2023-02-01T03:58:02;102268.97799999999;;;1.8;unknown
73422;BME280;61637;47.760;-122.022;2023-02-01T04:00:05;102268.97799999999;;;1.8;unknown
73422;BME280;61637;47.760;-122.022;2023-02-01T04:02:01;102268.97799999999;;;1.8;unknown
73422;BME280;61637;47.760;-122.022;2023-02-01T04:04:01;102268.97799999999;;;1.8;unknown
73422;BME280;61637;47.760;-122.022;2023-02-01T04:06:01;102268.97799999999;;;1.8;unknown
73422;BME280;61637;47.760;-122.022;2023-02-01T04:08:01;102268.97799999999;;;1.8;unknown
73422;BME280;61637;47.760;-122.022;2023-02-01T04:10:01;102268.97799999999;;;1.8;unknown
73422;BME280;61637;47.760;-122.022;2023-02-01T04:12:01;102268.97799999999;;;1.8;unknown
73422;BME280;61637;47.760;-122.022;2023-02-01T04:14:01;102268.97799999999;;;1.8;unknown
73422;BME280;61637;47.760;-122.022;2023-02-01T04:16:01;102268.97799999999;;;1.8;unknown
73422;BME280;61637;47.760;-122.022;2023-02-01T04:18:01;102268.97799999999;;;1.8;unknown
73422;BME280;61637;47.760;-122.022;2023-02-01T04:20:01;102268.97799999999;;;1.8;unknown
73422;BME280;61637;47.760;-122.022;2023-02-01T04:22:01;102268.97799999999;;;1.8;unknown
73422;BME280;61637;47.760;-122.022;2023-02-01T04:24:01;102268.97799999999;;;1.8;unknown
73422;BME280;61637;47.760;-122.022;2023-02-01T04:26:01;102268.97799999999;;;1.8;unknown
73422;BME280;61637;47.760;-122.022;2023-02-01T04:28:01;102268.97799999999;;;1.8;unknown
73422;BME280;61637;47.760;-122.022;2023-02-01T04:30:01;102268.97799999999;;;1.8;unknown
73422;BME280;61637;47.760;-122.022;2023-02-01T04:32:01;102268.97799999999;;;1.8;unknown
73422;BME280;61637;47.760;-122.022;2023-02-01T04:34:01;102268.97799999999;;;1.8;unknown
73422;BME280;61637;47.760;-122.022;2023-02-01T04:36:01;102268.97799999999;;;1.8;unknown
73422;BME280;61637;47.760;-122.022;2023-02-01T04:38:01;102268.97799999999;;;1.8;unknown
73422;BME280;61637;47.760;-122.022;2023-02-01T04:40:01;102268.97799999999;;;1.8;unknown
73422;BME280;61637;47.760;-122.022;2023-02-01T04:42:01;102268.97799999999;;;1.8;unknown
73422;BME280;61637;47.760;-122.022;2023-02-01T04:44:01;102268.97799999999;;;1.8;unknown
73422;BME280;61637;47.760;-122.022;2023-02-01T04:46:01;102268.97799999999;;;1.8;unknown
73422;BME280;61637;47.760;-122.022;2023-02-01T04:48:01;102268.97799999999;;;1.8;unknown
73422;BME280;61637;47.760;-122.022;2023-02-01T04:50:01;102268.97799999999;;;1.8;unknown
73422;BME280;61637;47.760;-122.022;2023-02-01T04:52:01;102268.97799999999;;;1.8;unknown
73422;BME280;61637;47.760;-122.022;2023-02-01T04:54:01;102268.97799999999;;;1.8;unknown
73422;BME280;61637;47.760;-122.022;2023-02-01T04:56:01;102268.97799999999;;;1.8;unknown
73422;BME280;61637;47.760;-122.022;2023-02-01T04:58:01;102268.97799999999;;;1.8;unknown
73422;BME280;61637;47.760;-122.022;2023-02-01T05:00:01;102268.97799999999;;;1.8;unknown
73422;BME280;61637;47.760;-122.022;2023-02-01T05:02:01;102268.97799999999;;;1.8;unknown
73422;BME280;61637;47.760;-122.022;2023-02-01T05:04:01;102268.97799999999;;;1.8;unknown
73422;BME280;61637;47.760;-122.022;2023-02-01T05:06:01;102268.97799999999;;;1.8;unknown
73422;BME280;61637;47.760;-122.022;2023-02-01T05:08:01;102268.97799999999;;;1.8;unknown
73422;BME280;61637;47.760;-122.022;2023-02-01T05:10:01;102268.97799999999;;;1.8;unknown
73422;BME280;61637;47.760;-122.022;2023-02-01T05:12:01;102268.97799999999;;;1.8;unknown
73422;BME280;61637;47.760;-122.022;2023-02-01T05:14:01;102268.97799999999;;;1.8;unknown
73422;BME280;61637;47.760;-122.022;2023-02-01T05:16:01;102268.97799999999;;;1.8;unknown
73422;BME280;61637;47.760;-122.022;2023-02-01T05:18:01;102268.97799999999;;;1.7;unknown
73422;BME280;61637;47.760;-122.022;2023-02-01T05:20:01;102268.97799999999;;;1.7;unknown
73422;BME280;61637;47.760;-122.022;2023-02-01T05:22:01;102268.97799999999;;;1.7;unknown
73422;BME280;61637;47.760;-122.022;2023-02-01T05:24:01;102268.97799999999;;;1.7;unknown
73422;BME280;61637;47.760;-122.022;2023-02-01T05:26:01;102268.97799999999;;;1.7;unknown
73422;BME280;61637;47.760;-122.022;2023-02-01T05:28:01;102268.97799999999;;;1.7;unknown
73422;BME280;61637;47.760;-122.022;2023-02-01T05:30:01;102268.97799999999;;;1.7;unknown
73422;BME280;61637;47.760;-122.022;2023-02-01T05:32:01;102268.97799999999;;;1.6;unknown
73422;BME280;61637;47.760;-122.022;2023-02-01T05:34:01;102268.97799999999;;;1.6;unknown
73422;BME280;61637;47.760;-122.022;2023-02-01T05:36:01;102268.97799999999;;;1.6;unknown
73422;BME280;61637;47.760;-122.022;2023-02-01T05:38:01;102268.97799999999;;;1.6;unknown
73422;BME280;61637;47.760;-122.022;2023-02-01T05:40:01;102268.97799999999;;;1.6;unknown
73422;BME280;61637;47.760;-122.022;2023-02-01T05:42:01;102268.97799999999;;;1.5;unknown
73422;BME280;61637;47.760;-122.022;2023-02-01T05:44:01;102268.97799999999;;;1.5;unknown
73422;BME280;61637;47.760;-122.022;2023-02-01T05:46:01;102268.97799999999;;;1.5;unknown
73422;BME280;61637;47.760;-122.022;2023-02-01T05:48:01;102268.97799999999;;;1.4;unknown
73422;BME280;61637;47.760;-122.022;2023-02-01T05:50:01;102268.97799999999;;;1.4;unknown
73422;BME280;61637;47.760;-122.022;2023-02-01T05:52:01;102268.97799999999;;;1.4;unknown
73422;BME280;61637;47.760;-122.022;2023-02-01T05:54:01;102268.97799999999;;;1.4;unknown
73422;BME280;61637;47.760;-122.022;2023-02-01T05:56:01;102268.97799999999;;;1.4;unknown
73422;BME280;61637;47.760;-122.022;2023-02-01T05:58:01;102268.97799999999;;;1.3;unknown
73422;BME280;61637;47.760;-122.022;2023-02-01T06:00:01;102268.97799999999;;;1.3;unknown
73422;BME280;61637;47.760;-122.022;2023-02-01T06:02:01;102268.97799999999;;;1.3;unknown
73422;BME280;61637;47.760;-122.022;2023-02-01T06:04:01;102268.97799999999;;;1.3;unknown
73422;BME280;61637;47.760;-122.022;2023-02-01T06:06:01;102268.97799999999;;;1.3;unknown
73422;BME280;61637;47.760;-122.022;2023-02-01T06:08:01;102268.97799999999;;;1.3;unknown
73422;BME280;61637;47.760;-122.022;2023-02-01T06:10:01;102268.97799999999;;;1.3;unknown
73422;BME280;61637;47.760;-122.022;2023-02-01T06:12:01;102268.97799999999;;;1.3;unknown
73422;BME280;61637;47.760;-122.022;2023-02-01T06:14:01;102268.97799999999;;;1.2;unknown
73422;BME280;61637;47.760;-122.022;2023-02-01T06:16:01;102268.97799999999;;;1.2;unknown
73422;BME280;61637;47.760;-122.022;2023-02-01T06:18:01;102268.97799999999;;;1.3;unknown
73422;BME280;61637;47.760;-122.022;2023-02-01T06:20:01;102268.97799999999;;;1.2;unknown
73422;BME280;61637;47.760;-122.022;2023-02-01T06:22:01;102268.97799999999;;;1.3;unknown
73422;BME280;61637;47.760;-122.022;2023-02-01T06:24:01;102268.97799999999;;;1.3;unknown
73422;BME280;61637;47.760;-122.022;2023-02-01T06:26:01;102268.97799999999;;;1.3;unknown
73422;BME280;61637;47.760;-122.022;2023-02-01T06:28:01;102268.97799999999;;;1.2;unknown
73422;BME280;61637;47.760;-122.022;2023-02-01T06:30:01;102268.97799999999;;;1.2;unknown
73422;BME280;61637;47.760;-122.022;2023-02-01T06:32:01;102268.97799999999;;;1.2;unknown
73422;BME280;61637;47.760;-122.022;2023-02-01T06:34:01;102268.97799999999;;;1.2;unknown
73422;BME280;61637;47.760;-122.022;2023-02-01T06:36:01;102268.97799999999;;;1.2;unknown
73422;BME280;61637;47.760;-122.022;2023-02-01T06:38:01;102268.97799999999;;;1.2;unknown
73422;BME280;61637;47.760;-122.022;2023-02-01T06:40:01;102268.97799999999;;;1.2;unknown
73422;BME280;61637;47.760;-122.022;2023-02-01T06:42:01;102268.97799999999;;;1.2;unknown
73422;BME280;61637;47.760;-122.022;2023-02-01T06:44:01;102268.97799999999;;;1.2;unknown
73422;BME280;61637;47.760;-122.022;2023-02-01T06:46:01;102268.97799999999;;;1.2;unknown
73422;BME280;61637;47.760;-122.022;2023-02-01T06:48:01;102268.97799999999;;;1.2;unknown
73422;BME280;61637;47.760;-122.022;2023-02-01T06:50:01;102268.97799999999;;;1.2;unknown
73422;BME280;61637;47.760;-122.022;2023-02-01T06:52:01;102268.97799999999;;;1.2;unknown
73422;BME280;61637;47.760;-122.022;2023-02-01T06:54:01;102268.97799999999;;;1.2;unknown
73422;BME280;61637;47.760;-122.022;2023-02-01T06:56:02;102268.97799999999;;;1.1;unknown
73422;BME280;61637;47.760;-122.022;2023-02-01T06:58:01;102268.97799999999;;;1.1;unknown
73422;BME280;61637;47.760;-122.022;2023-02-01T07:00:01;102268.97799999999;;;1.1;unknown
73422;BME280;61637;47.760;-122.022;2023-02-01T07:02:01;102268.97799999999;;;1.1;unknown
73422;BME280;61637;47.760;-122.022;2023-02-01T07:04:01;102268.97799999999;;;1.1;unknown
73422;BME280;61637;47.760;-122.022;2023-02-01T07:06:01;102268.97799999999;;;1.1;unknown
73422;BME280;61637;47.760;-122.022;2023-02-01T07:08:01;102268.97799999999;;;1.2;unknown
73422;BME280;61637;47.760;-122.022;2023-02-01T07:10:01;102268.97799999999;;;1.2;unknown
73422;BME280;61637;47.760;-122.022;2023-02-01T07:12:01;102268.97799999999;;;1.2;unknown
73422;BME280;61637;47.760;-122.022;2023-02-01T07:14:01;102268.97799999999;;;1.1;unknown
73422;BME280;61637;47.760;-122.022;2023-02-01T07:16:01;102268.97799999999;;;1.1;unknown
73422;BME280;61637;47.760;-122.022;2023-02-01T07:18:01;102268.97799999999;;;1.1;unknown
73422;BME280;61637;47.760;-122.022;2023-02-01T07:20:01;102268.97799999999;;;1.1;unknown
73422;BME280;61637;47.760;-122.022;2023-02-01T07:22:01;102268.97799999999;;;1.2;unknown
73422;BME280;61637;47.760;-122.022;2023-02-01T07:24:01;102268.97799999999;;;1.1;unknown
73422;BME280;61637;47.760;-122.022;2023-02-01T07:26:01;102268.97799999999;;;1.1;unknown
73422;BME280;61637;47.760;-122.022;2023-02-01T07:28:01;102268.97799999999;;;1.1;unknown
73422;BME280;61637;47.760;-122.022;2023-02-01T07:30:01;102268.97799999999;;;1.1;unknown
73422;BME280;61637;47.760;-122.022;2023-02-01T07:32:01;102268.97799999999;;;1.1;unknown
73422;BME280;61637;47.760;-122.022;2023-02-01T07:34:01;102268.97799999999;;;1.2;unknown
73422;BME280;61637;47.760;-122.022;2023-02-01T07:36:01;102268.97799999999;;;1.1;unknown
73422;BME280;61637;47.760;-122.022;2023-02-01T07:38:01;102268.97799999999;;;1.1;unknown
73422;BME280;61637;47.760;-122.022;2023-02-01T07:40:01;102268.97799999999;;;1.1;unknown
73422;BME280;61637;47.760;-122.022;2023-02-01T07:42:01;102268.97799999999;;;1.1;unknown
73422;BME280;61637;47.760;-122.022;2023-02-01T07:44:01;102268.97799999999;;;1.1;unknown
73422;BME280;61637;47.760;-122.022;2023-02-01T07:46:01;102268.97799999999;;;1.1;unknown
73422;BME280;61637;47.760;-122.022;2023-02-01T07:48:01;102268.97799999999;;;1.1;unknown
73422;BME280;61637;47.760;-122.022;2023-02-01T07:50:01;102268.97799999999;;;1.1;unknown
73422;BME280;61637;47.760;-122.022;2023-02-01T07:52:01;102268.97799999999;;;1.0;unknown
73422;BME280;61637;47.760;-122.022;2023-02-01T07:54:01;102268.97799999999;;;1.0;unknown
73422;BME280;61637;47.760;-122.022;2023-02-01T07:56:01;102268.97799999999;;;1.0;unknown
73422;BME280;61637;47.760;-122.022;2023-02-01T07:58:01;102268.97799999999;;;1.0;unknown
73422;BME280;61637;47.760;-122.022;2023-02-01T08:00:01;102268.97799999999;;;1.0;unknown
73422;BME280;61637;47.760;-122.022;2023-02-01T08:02:01;102268.97799999999;;;1.0;unknown
73422;BME280;61637;47.760;-122.022;2023-02-01T08:04:02;102268.97799999999;;;1.0;unknown
73422;BME280;61637;47.760;-122.022;2023-02-01T08:06:01;102268.97799999999;;;1.0;unknown
73422;BME280;61637;47.760;-122.022;2023-02-01T08:08:01;102268.97799999999;;;1.0;unknown
73422;BME280;61637;47.760;-122.022;2023-02-01T08:10:01;102268.97799999999;;;1.0;unknown
73422;BME280;61637;47.760;-122.022;2023-02-01T08:12:01;102268.97799999999;;;1.1;unknown
73422;BME280;61637;47.760;-122.022;2023-02-01T08:14:01;102268.97799999999;;;1.0;unknown
73422;BME280;61637;47.760;-122.022;2023-02-01T08:16:01;102268.97799999999;;;1.0;unknown
73422;BME280;61637;47.760;-122.022;2023-02-01T08:18:01;102268.97799999999;;;1.0;unknown
73422;BME280;61637;47.760;-122.022;2023-02-01T08:20:01;102268.97799999999;;;1.0;unknown
73422;BME280;61637;47.760;-122.022;2023-02-01T08:22:01;102268.97799999999;;;0.9;unknown
73422;BME280;61637;47.760;-122.022;2023-02-01T08:24:01;102268.97799999999;;;1.0;unknown
73422;BME280;61637;47.760;-122.022;2023-02-01T08:26:05;102268.97799999999;;;0.9;unknown
73422;BME280;61637;47.760;-122.022;2023-02-01T08:28:01;102268.97799999999;;;1.0;unknown
73422;BME280;61637;47.760;-122.022;2023-02-01T08:30:01;102268.97799999999;;;1.0;unknown
73422;BME280;61637;47.760;-122.022;2023-02-01T08:32:01;102268.97799999999;;;1.0;unknown
73422;BME280;61637;47.760;-122.022;2023-02-01T08:34:01;102268.97799999999;;;0.9;unknown
73422;BME280;61637;47.760;-122.022;2023-02-01T08:36:01;102268.97799999999;;;1.0;unknown
73422;BME280;61637;47.760;-122.022;2023-02-01T08:38:01;102268.97799999999;;;1.0;unknown
73422;BME280;61637;47.760;-122.022;2023-02-01T08:40:01;102268.97799999999;;;1.0;unknown
73422;BME280;61637;47.760;-122.022;2023-02-01T08:42:01;102268.97799999999;;;1.1;unknown
73422;BME280;61637;47.760;-122.022;2023-02-01T08:44:01;102268.97799999999;;;1.0;unknown
73422;BME280;61637;47.760;-122.022;2023-02-01T08:46:01;102268.97799999999;;;1.1;unknown
73422;BME280;61637;47.760;-122.022;2023-02-01T08:48:01;102268.97799999999;;;1.1;unknown
73422;BME280;61637;47.760;-122.022;2023-02-01T08:50:01;102268.97799999999;;;1.1;unknown
73422;BME280;61637;47.760;-122.022;2023-02-01T08:52:01;102268.97799999999;;;1.0;unknown
73422;BME280;61637;47.760;-122.022;2023-02-01T08:54:01;102268.97799999999;;;1.0;unknown
73422;BME280;61637;47.760;-122.022;2023-02-01T08:56:01;102268.97799999999;;;1.0;unknown
73422;BME280;61637;47.760;-122.022;2023-02-01T08:58:01;102268.97799999999;;;1.0;unknown
73422;BME280;61637;47.760;-122.022;2023-02-01T09:00:01;102268.97799999999;;;0.9;unknown
73422;BME280;61637;47.760;-122.022;2023-02-01T09:02:01;102268.97799999999;;;0.9;unknown
73422;BME280;61637;47.760;-122.022;2023-02-01T09:04:01;102268.97799999999;;;0.9;unknown